Time;durP1;ratioP1;P1;durP2;ratioP2;P2;SDS_P1;SDS_P2;PMS_P1;PMS_P2;Temp;Humidity;BMP_temperature;BMP_pressure;BME280_temperature;BME280_humidity;BME280_pressure;Samples;Min_cycle;Max_cycle;Signal;HPM_P1;HPM_P2
2021/12/05 00:20:38;;;;;;;;;;;4.40;99.90;;;;;;8349514;28;19924;-69
2021/12/05 00:24:44;;;;;;;;;;;4.50;99.90;;;;;;8346387;28;19924;-69
2021/12/05 01:03:16;;;;;;;;;;;4.40;99.90;;;;;;8384280;28;19928;-69
2021/12/05 01:07:35;;;;;;;;;;;4.40;99.90;;;;;;8393032;28;20042;-69
2021/12/05 01:15:51;;;;;;;;;;;4.40;99.90;;;;;;8382520;28;19925;-69
2021/12/05 01:19:54;;;;;;;;;;;4.40;99.90;;;;;;8382464;28;19924;-69
2021/12/05 01:24:05;;;;;;;;;;;4.30;99.90;;;;;;8384069;28;19924;-69
2021/12/05 01:45:38;;;;;;;;;;;4.30;99.90;;;;;;8385203;28;19936;-69
2021/12/05 02:32:49;;;;;;;;;;;3.90;99.90;;;;;;8366769;28;20292;-69
2021/12/05 02:36:58;;;;;;;;;;;3.90;99.90;;;;;;8380179;28;19925;-69
2021/12/05 02:41:10;;;;;;;;;;;3.90;99.90;;;;;;8365114;28;19964;-69
2021/12/05 02:45:12;;;;;;;;;;;3.90;99.90;;;;;;8392815;28;20549;-69
2021/12/05 02:49:15;;;;;;;;;;;3.90;99.90;;;;;;8381278;28;19936;-69
2021/12/05 02:53:20;;;;;;;;;;;3.90;99.90;;;;;;8388422;28;20382;-69
2021/12/05 02:57:44;;;;;;;;;;;3.90;99.90;;;;;;8381568;28;19940;-69
2021/12/05 03:01:47;;;;;;;;;;;3.80;99.90;;;;;;8388439;28;19976;-68
2021/12/05 03:05:53;;;;;;;;;;;3.80;99.90;;;;;;8382914;28;19933;-69
2021/12/05 03:09:54;;;;;;;;;;;3.80;99.90;;;;;;8358812;28;19924;-69
2021/12/05 03:13:56;;;;;;;;;;;3.90;99.90;;;;;;8376118;28;19939;-69
2021/12/05 03:17:58;;;;;;;;;;;3.80;99.90;;;;;;8382102;28;19982;-69
2021/12/05 03:21:59;;;;;;;;;;;3.90;99.90;;;;;;8370846;28;19979;-69
2021/12/05 03:26:02;;;;;;;;;;;3.80;99.90;;;;;;8383642;28;19931;-69
2021/12/05 03:30:05;;;;;;;;;;;3.90;99.90;;;;;;8388645;28;19971;-69
2021/12/05 03:34:07;;;;;;;;;;;3.90;99.90;;;;;;8386694;28;19932;-69
2021/12/05 03:38:09;;;;;;;;;;;3.80;99.90;;;;;;8369386;28;19932;-68
2021/12/05 03:42:11;;;;;;;;;;;3.90;99.90;;;;;;8383366;28;19931;-69
2021/12/05 03:46:13;;;;;;;;;;;3.90;99.90;;;;;;8387725;28;20047;-69
2021/12/05 03:50:15;;;;;;;;;;;3.90;99.90;;;;;;8375365;28;19981;-69
2021/12/05 03:54:16;;;;;;;;;;;4.00;99.90;;;;;;8365737;28;19936;-69
2021/12/05 03:58:19;;;;;;;;;;;4.00;99.90;;;;;;8388511;28;19956;-69
2021/12/05 04:02:20;;;;;;;;;;;4.00;99.90;;;;;;8381947;28;19956;-69
2021/12/05 04:06:23;;;;;;;;;;;4.00;99.90;;;;;;8386144;28;19978;-69
2021/12/05 04:10:27;;;;;;;;;;;4.00;99.90;;;;;;8373977;28;19980;-69
2021/12/05 04:14:37;;;;;;;;;;;4.00;99.90;;;;;;8379132;28;20414;-69
2021/12/05 04:18:39;;;;;;;;;;;4.00;99.90;;;;;;8365594;28;19940;-69
2021/12/05 04:22:41;;;;;;;;;;;4.00;99.90;;;;;;8358475;28;20019;-69
2021/12/05 04:26:43;;;;;;;;;;;4.00;99.90;;;;;;8375629;28;19956;-69
2021/12/05 04:30:45;;;;;;;;;;;4.00;99.90;;;;;;8385973;28;20503;-69
2021/12/05 04:34:46;;;;;;;;;;;4.00;99.90;;;;;;8359390;28;20304;-69
2021/12/05 04:38:48;;;;;;;;;;;4.00;99.90;;;;;;8376628;28;19924;-69
2021/12/05 04:42:50;;;;;;;;;;;4.00;99.90;;;;;;8363754;28;20307;-69
2021/12/05 04:46:52;;;;;;;;;;;4.00;99.90;;;;;;8388508;28;20418;-69
2021/12/05 04:50:53;;;;;;;;;;;4.00;99.90;;;;;;8389956;28;19984;-69
2021/12/05 04:54:55;;;;;;;;;;;4.00;99.90;;;;;;8385416;28;19944;-69
2021/12/05 04:58:57;;;;;;;;;;;4.10;99.90;;;;;;8404060;28;19933;-70
2021/12/05 05:02:59;;;;;;;;;;;4.10;99.90;;;;;;8376171;28;20414;-69
2021/12/05 05:07:04;;;;;;;;;;;4.10;99.90;;;;;;8383110;28;20016;-69
2021/12/05 05:11:08;;;;;;;;;;;4.10;99.90;;;;;;8383643;28;20300;-69
2021/12/05 05:15:11;;;;;;;;;;;4.10;99.90;;;;;;8375908;28;20303;-69
2021/12/05 05:19:15;;;;;;;;;;;4.10;99.90;;;;;;8360877;28;20019;-69
2021/12/05 05:27:50;;;;;;;;;;;4.10;99.90;;;;;;8383978;28;19987;-69
2021/12/05 05:45:00;;;;;;;;;;;4.10;99.90;;;;;;8388569;28;19924;-69
2021/12/05 05:53:36;;;;;;;;;;;4.20;99.90;;;;;;8351149;28;19933;-69
2021/12/05 06:06:17;;;;;;;;;;;4.20;99.90;;;;;;8349625;28;20078;-69
2021/12/05 06:10:20;;;;;;;;;;;4.20;99.90;;;;;;8383297;28;19936;-69
2021/12/05 06:14:22;;;;;;;;;;;4.30;99.90;;;;;;8379271;28;19939;-69
2021/12/05 06:18:24;;;;;;;;;;;4.30;99.90;;;;;;8384951;28;19976;-69
2021/12/05 06:22:26;;;;;;;;;;;4.30;99.90;;;;;;8380358;28;19924;-69
2021/12/05 06:26:28;;;;;;;;;;;4.40;99.90;;;;;;8380358;28;19936;-69
2021/12/05 06:39:29;;;;;;;;;;;4.40;99.90;;;;;;8381803;28;19932;-69
2021/12/05 06:47:35;;;;;;;;;;;4.40;99.90;;;;;;8383497;28;19932;-69
2021/12/05 06:51:36;;;;;;;;;;;4.40;99.90;;;;;;8368874;28;19975;-69
2021/12/05 06:55:38;;;;;;;;;;;4.40;99.90;;;;;;8373897;28;20024;-69
2021/12/05 06:59:45;;;;;;;;;;;4.40;99.90;;;;;;8379061;28;22084;-69
2021/12/05 07:03:49;;;;;;;;;;;4.40;99.90;;;;;;8394213;28;20265;-69
2021/12/05 07:07:51;;;;;;;;;;;4.40;99.90;;;;;;8384053;28;19937;-69
2021/12/05 07:16:15;;;;;;;;;;;4.40;99.90;;;;;;8383680;28;19975;-69
2021/12/05 07:20:54;;;;;;;;;;;4.50;99.90;;;;;;8383505;28;19928;-69
2021/12/05 07:24:47;;;;;;;;;;;4.50;99.90;;;;;;8386926;28;19929;-69
2021/12/05 07:42:00;;;;;;;;;;;4.50;99.90;;;;;;8389794;28;19967;-70
2021/12/05 07:46:06;;;;;;;;;;;4.50;99.90;;;;;;8382874;28;19925;-70
2021/12/05 07:50:10;;;;;;;;;;;4.50;99.90;;;;;;8382385;28;19955;-69
2021/12/05 07:54:27;;;;;;;;;;;4.50;99.90;;;;;;8384918;28;19924;-69
2021/12/05 08:16:01;;;;;;;;;;;4.50;99.90;;;;;;8382983;28;19928;-69
2021/12/05 08:20:05;;;;;;;;;;;4.50;99.90;;;;;;8381385;28;19932;-69
2021/12/05 08:24:07;;;;;;;;;;;4.50;99.90;;;;;;8371176;28;19963;-69
2021/12/05 08:28:32;;;;;;;;;;;4.60;99.90;;;;;;8385558;28;19924;-70
2021/12/05 08:41:40;;;;;;;;;;;4.60;99.90;;;;;;8381632;28;19976;-70
2021/12/05 10:13:04;;;;;;;;;;;5.00;99.90;;;;;;8350303;28;19972;-69
2021/12/05 10:17:35;;;;;;;;;;;5.00;99.90;;;;;;8385209;28;19928;-70
2021/12/05 10:26:30;;;;;;;;;;;5.10;99.90;;;;;;8376536;28;20342;-70
2021/12/05 10:39:05;;;;;;;;;;;5.30;99.90;;;;;;8384842;28;19928;-69
2021/12/05 10:43:12;;;;;;;;;;;5.30;99.90;;;;;;8395618;28;19965;-69
2021/12/05 10:47:33;;;;;;;;;;;5.40;99.90;;;;;;8388360;28;19925;-70
2021/12/05 10:51:38;;;;;;;;;;;5.40;99.90;;;;;;8382867;28;19934;-70
2021/12/05 10:55:39;;;;;;;;;;;5.30;99.90;;;;;;8391133;28;20023;-70
2021/12/05 10:59:41;;;;;;;;;;;5.40;99.90;;;;;;8375523;28;20407;-70
2021/12/05 11:04:19;;;;;;;;;;;5.40;99.90;;;;;;8380891;28;19932;-69
2021/12/05 11:08:32;;;;;;;;;;;5.40;99.90;;;;;;8367745;28;20368;-70
2021/12/05 11:12:35;;;;;;;;;;;5.50;99.90;;;;;;8388583;28;19924;-70
2021/12/05 11:16:44;;;;;;;;;;;5.50;99.90;;;;;;8379619;28;19925;-70
2021/12/05 11:20:47;;;;;;;;;;;5.60;99.90;;;;;;8387589;28;19925;-69
2021/12/05 11:25:00;;;;;;;;;;;5.70;99.90;;;;;;8399334;28;19924;-70
2021/12/05 11:29:02;;;;;;;;;;;5.70;99.90;;;;;;8383844;28;19924;-70
2021/12/05 11:33:07;;;;;;;;;;;5.70;99.90;;;;;;8384291;28;19972;-70
2021/12/05 11:37:08;;;;;;;;;;;5.80;99.90;;;;;;8384543;28;19978;-70
2021/12/05 11:41:12;;;;;;;;;;;5.80;99.90;;;;;;8382733;28;19924;-70
2021/12/05 11:45:14;;;;;;;;;;;5.80;99.90;;;;;;8386355;28;19971;-70
2021/12/05 11:49:20;;;;;;;;;;;5.80;99.90;;;;;;8384950;28;20259;-70
2021/12/05 11:53:39;;;;;;;;;;;5.90;99.90;;;;;;8380359;28;20416;-70
2021/12/05 11:57:41;;;;;;;;;;;5.90;99.90;;;;;;8385630;28;19939;-71
2021/12/05 12:01:51;;;;;;;;;;;5.90;99.90;;;;;;8378743;28;20458;-70
2021/12/05 12:05:53;;;;;;;;;;;5.90;99.90;;;;;;8374394;28;20353;-70
2021/12/05 12:10:17;;;;;;;;;;;5.90;99.90;;;;;;8371076;28;20384;-69
2021/12/05 12:14:19;;;;;;;;;;;5.80;99.90;;;;;;8352431;28;19983;-70
2021/12/05 12:18:27;;;;;;;;;;;5.80;99.90;;;;;;8375690;28;20391;-70
2021/12/05 12:22:28;;;;;;;;;;;5.80;99.90;;;;;;8373708;28;19975;-70
2021/12/05 12:26:30;;;;;;;;;;;5.80;99.90;;;;;;8371689;28;19960;-69
2021/12/05 12:30:33;;;;;;;;;;;5.80;99.90;;;;;;8370290;28;19974;-70
2021/12/05 12:34:34;;;;;;;;;;;5.80;99.90;;;;;;8372032;28;19924;-70
2021/12/05 12:38:39;;;;;;;;;;;5.80;99.90;;;;;;8364480;28;20852;-70
2021/12/05 12:42:40;;;;;;;;;;;5.90;99.90;;;;;;8368064;28;19928;-70
2021/12/05 12:46:48;;;;;;;;;;;5.90;99.90;;;;;;8383887;28;19933;-69
2021/12/05 12:50:52;;;;;;;;;;;6.00;99.90;;;;;;8390884;28;19924;-69
2021/12/05 12:54:56;;;;;;;;;;;6.10;99.90;;;;;;8400240;28;20567;-70
2021/12/05 12:59:01;;;;;;;;;;;6.10;99.90;;;;;;8393506;28;19971;-70
2021/12/05 13:03:15;;;;;;;;;;;6.30;99.90;;;;;;8414029;28;20023;-70
2021/12/05 13:10:00;;;;;;;;;;;6.50;99.90;;;;;;8400899;28;19946;-70
2021/12/05 13:11:48;;;;;;;;;;;6.60;99.90;;;;;;8395597;28;20372;-70
2021/12/05 13:15:57;;;;;;;;;;;6.70;99.90;;;;;;8396900;28;19959;-70
2021/12/05 13:20:00;;;;;;;;;;;6.80;99.90;;;;;;8395956;28;19973;-70
2021/12/05 13:24:25;;;;;;;;;;;7.00;99.90;;;;;;8376894;28;24254;-69
2021/12/05 13:28:28;;;;;;;;;;;7.10;99.90;;;;;;8389842;28;20390;-70
2021/12/05 13:32:31;;;;;;;;;;;7.20;99.90;;;;;;8387132;28;20319;-70
2021/12/05 13:36:33;;;;;;;;;;;7.00;99.90;;;;;;8361146;28;20442;-70
2021/12/05 13:40:37;;;;;;;;;;;7.00;99.90;;;;;;8390575;28;20011;-70
2021/12/05 13:44:57;;;;;;;;;;;6.90;99.90;;;;;;8387390;28;19985;-70
2021/12/05 13:49:00;;;;;;;;;;;6.80;99.90;;;;;;8391787;28;19958;-70
2021/12/05 13:53:02;;;;;;;;;;;6.60;99.90;;;;;;8389939;28;19936;-69
2021/12/05 13:57:07;;;;;;;;;;;6.50;99.90;;;;;;8391926;28;20363;-70
2021/12/05 14:01:11;;;;;;;;;;;6.40;99.90;;;;;;8381442;28;19958;-70
2021/12/05 14:05:26;;;;;;;;;;;6.40;99.90;;;;;;8396469;28;19959;-70
2021/12/05 14:09:34;;;;;;;;;;;6.30;99.90;;;;;;8390967;28;19920;-70
2021/12/05 14:13:36;;;;;;;;;;;6.30;99.90;;;;;;8400502;28;19920;-69
2021/12/05 14:17:40;;;;;;;;;;;6.20;99.90;;;;;;8378490;28;19920;-70
2021/12/05 14:21:44;;;;;;;;;;;6.20;99.90;;;;;;8397965;28;19928;-70
2021/12/05 14:25:45;;;;;;;;;;;6.10;99.90;;;;;;8365438;28;19920;-70
2021/12/05 14:29:49;;;;;;;;;;;6.10;99.90;;;;;;8392511;28;19927;-69
2021/12/05 14:33:52;;;;;;;;;;;6.10;99.90;;;;;;8397127;28;19939;-70
2021/12/05 14:37:54;;;;;;;;;;;6.10;99.90;;;;;;8395587;28;20039;-70
2021/12/05 14:41:58;;;;;;;;;;;6.00;99.90;;;;;;8374906;28;19984;-70
2021/12/05 14:46:00;;;;;;;;;;;6.00;99.90;;;;;;8400124;28;20347;-70
2021/12/05 14:50:05;;;;;;;;;;;6.00;99.90;;;;;;8382660;28;20276;-70
2021/12/05 14:54:07;;;;;;;;;;;6.00;99.90;;;;;;8401284;28;19978;-70
2021/12/05 14:58:10;;;;;;;;;;;6.00;99.90;;;;;;8410396;28;20413;-70
2021/12/05 15:02:12;;;;;;;;;;;5.90;99.90;;;;;;8402645;28;19963;-70
2021/12/05 15:06:14;;;;;;;;;;;5.90;99.90;;;;;;8401929;28;19924;-70
2021/12/05 15:10:20;;;;;;;;;;;5.90;99.90;;;;;;8396243;28;20013;-70
2021/12/05 15:14:21;;;;;;;;;;;5.90;99.90;;;;;;8402138;28;19959;-70
2021/12/05 15:18:28;;;;;;;;;;;5.90;99.90;;;;;;8405201;28;20042;-70
2021/12/05 15:22:30;;;;;;;;;;;5.90;99.90;;;;;;8397770;28;20302;-70
2021/12/05 15:26:32;;;;;;;;;;;5.80;99.90;;;;;;8399237;28;20455;-70
2021/12/05 15:30:36;;;;;;;;;;;5.80;99.90;;;;;;8372897;28;19928;-70
2021/12/05 15:34:37;;;;;;;;;;;5.80;99.90;;;;;;8401972;28;20003;-70
2021/12/05 15:38:39;;;;;;;;;;;5.80;99.90;;;;;;8400253;28;20374;-70
2021/12/05 15:42:40;;;;;;;;;;;5.80;99.90;;;;;;8399353;28;21210;-70
2021/12/05 15:46:42;;;;;;;;;;;5.80;99.90;;;;;;8399108;28;19957;-70
2021/12/05 15:50:45;;;;;;;;;;;5.70;99.90;;;;;;8390775;28;20002;-70
2021/12/05 15:54:47;;;;;;;;;;;5.70;99.90;;;;;;8398981;28;20367;-70
2021/12/05 15:59:00;;;;;;;;;;;5.70;99.90;;;;;;8374086;28;20352;-70
2021/12/05 16:03:06;;;;;;;;;;;5.70;99.90;;;;;;8400961;28;19920;-70
2021/12/05 16:07:10;;;;;;;;;;;5.70;99.90;;;;;;8372092;28;20302;-70
2021/12/05 16:11:13;;;;;;;;;;;5.70;99.90;;;;;;8394696;28;19967;-70
2021/12/05 16:15:16;;;;;;;;;;;5.70;99.90;;;;;;8401821;28;19955;-70
2021/12/05 16:19:18;;;;;;;;;;;5.70;99.90;;;;;;8383591;28;20413;-69
2021/12/05 16:23:27;;;;;;;;;;;5.70;99.90;;;;;;8383224;28;19990;-70
2021/12/05 16:27:28;;;;;;;;;;;5.70;99.90;;;;;;8395622;28;20417;-70
2021/12/05 16:31:32;;;;;;;;;;;5.60;99.90;;;;;;8393827;28;20053;-70
2021/12/05 16:35:36;;;;;;;;;;;5.60;99.90;;;;;;8401755;28;20290;-69
2021/12/05 16:39:39;;;;;;;;;;;5.60;99.90;;;;;;8395169;28;20370;-69
2021/12/05 16:44:00;;;;;;;;;;;5.60;99.90;;;;;;8361690;28;19970;-70
2021/12/05 16:48:02;;;;;;;;;;;5.60;99.90;;;;;;8375735;28;19943;-70
2021/12/05 16:52:09;;;;;;;;;;;5.60;99.90;;;;;;8391421;28;19956;-70
2021/12/05 16:56:13;;;;;;;;;;;5.60;99.90;;;;;;8391493;28;19955;-70
2021/12/05 17:00:17;;;;;;;;;;;5.60;99.90;;;;;;8392561;28;20296;-70
2021/12/05 17:04:18;;;;;;;;;;;5.60;99.90;;;;;;8380228;28;19960;-70
2021/12/05 17:08:20;;;;;;;;;;;5.60;99.90;;;;;;8358226;28;19928;-70
2021/12/05 17:12:29;;;;;;;;;;;5.60;99.90;;;;;;8384890;28;20321;-70
2021/12/05 17:16:32;;;;;;;;;;;5.60;99.90;;;;;;8371779;28;19920;-70
2021/12/05 17:20:36;;;;;;;;;;;5.60;99.90;;;;;;8386312;28;20127;-70
2021/12/05 17:24:38;;;;;;;;;;;5.60;99.90;;;;;;8392850;28;19951;-70
2021/12/05 17:29:09;;;;;;;;;;;5.70;99.90;;;;;;8390106;28;19978;-69
2021/12/05 17:33:22;;;;;;;;;;;5.70;99.90;;;;;;8380150;28;19944;-70
2021/12/05 17:37:25;;;;;;;;;;;5.60;99.90;;;;;;8399421;28;20023;-70
2021/12/05 17:41:30;;;;;;;;;;;5.60;99.90;;;;;;8391210;28;20388;-70
2021/12/05 17:45:37;;;;;;;;;;;5.60;99.90;;;;;;8391014;28;20409;-70
2021/12/05 17:49:40;;;;;;;;;;;5.60;99.90;;;;;;8390272;28;19926;-70
2021/12/05 17:53:41;;;;;;;;;;;5.60;99.90;;;;;;8385481;28;19924;-70
2021/12/05 17:57:51;;;;;;;;;;;5.60;99.90;;;;;;8390811;28;20308;-70
2021/12/05 18:06:14;;;;;;;;;;;5.50;99.90;;;;;;8389277;28;20164;-70
2021/12/05 18:10:17;;;;;;;;;;;5.50;99.90;;;;;;8392503;28;19990;-70
2021/12/05 18:14:19;;;;;;;;;;;5.50;99.90;;;;;;8399759;28;20270;-70
2021/12/05 18:18:22;;;;;;;;;;;5.50;99.90;;;;;;8394577;28;19952;-70
2021/12/05 18:22:23;;;;;;;;;;;5.50;99.90;;;;;;8397265;28;19963;-70
2021/12/05 18:26:26;;;;;;;;;;;5.50;99.90;;;;;;8373266;28;20007;-70
2021/12/05 18:30:28;;;;;;;;;;;5.40;99.90;;;;;;8354689;28;20428;-70
2021/12/05 18:34:31;;;;;;;;;;;5.40;99.90;;;;;;8385328;28;22214;-70
2021/12/05 18:38:33;;;;;;;;;;;5.40;99.90;;;;;;8394467;28;19955;-70
2021/12/05 18:42:34;;;;;;;;;;;5.40;99.90;;;;;;8348805;28;20362;-70
2021/12/05 18:46:36;;;;;;;;;;;5.40;99.90;;;;;;8385435;28;19959;-70
2021/12/05 18:50:38;;;;;;;;;;;5.40;99.90;;;;;;8354531;28;20325;-70
2021/12/05 18:54:45;;;;;;;;;;;5.40;99.90;;;;;;8398114;28;20249;-70
2021/12/05 18:58:46;;;;;;;;;;;5.40;99.90;;;;;;8373657;28;19924;-70
2021/12/05 19:07:15;;;;;;;;;;;5.40;99.90;;;;;;8395551;28;19931;-70
2021/12/05 19:15:37;;;;;;;;;;;5.40;99.90;;;;;;8391252;28;20370;-70
2021/12/05 19:19:41;;;;;;;;;;;5.40;99.90;;;;;;8390648;28;19929;-70
2021/12/05 19:23:42;;;;;;;;;;;5.40;99.90;;;;;;8395152;28;20004;-70
2021/12/05 19:27:45;;;;;;;;;;;5.30;99.90;;;;;;8394970;28;19932;-70
2021/12/05 19:31:48;;;;;;;;;;;5.30;99.90;;;;;;8394310;28;19927;-70
2021/12/05 19:35:50;;;;;;;;;;;5.40;99.90;;;;;;8391601;28;19924;-70
2021/12/05 19:39:52;;;;;;;;;;;5.40;99.90;;;;;;8389302;28;19931;-70
2021/12/05 19:43:54;;;;;;;;;;;5.30;99.90;;;;;;8386195;28;19959;-70
2021/12/05 19:47:57;;;;;;;;;;;5.30;99.90;;;;;;8383044;28;19986;-70
2021/12/05 19:51:59;;;;;;;;;;;5.30;99.90;;;;;;8366900;28;19963;-70
2021/12/05 19:56:00;;;;;;;;;;;5.30;99.90;;;;;;8388863;28;20003;-70
2021/12/05 20:00:11;;;;;;;;;;;5.30;99.90;;;;;;8384769;28;20023;-70
2021/12/05 20:04:13;;;;;;;;;;;5.30;99.90;;;;;;8391923;28;19959;-70
2021/12/05 20:08:15;;;;;;;;;;;5.30;99.90;;;;;;8393966;28;20098;-70
2021/12/05 20:12:17;;;;;;;;;;;5.30;99.90;;;;;;8387970;28;19955;-70
2021/12/05 20:16:19;;;;;;;;;;;5.30;99.90;;;;;;8378558;28;19920;-71
2021/12/05 20:20:21;;;;;;;;;;;5.30;99.90;;;;;;8378898;28;20385;-70
2021/12/05 20:24:23;;;;;;;;;;;5.20;99.90;;;;;;8371478;28;19964;-70
2021/12/05 20:28:25;;;;;;;;;;;5.30;99.90;;;;;;8389387;28;19971;-70
2021/12/05 20:32:27;;;;;;;;;;;5.30;99.90;;;;;;8375430;28;20394;-70
2021/12/05 20:36:29;;;;;;;;;;;5.30;99.90;;;;;;8392206;28;19928;-71
2021/12/05 20:40:34;;;;;;;;;;;5.30;99.90;;;;;;8387768;28;20320;-70
2021/12/05 20:44:36;;;;;;;;;;;5.30;99.90;;;;;;8396604;28;19943;-70
2021/12/05 20:48:40;;;;;;;;;;;5.30;99.90;;;;;;8372989;28;20296;-70
2021/12/05 20:52:43;;;;;;;;;;;5.30;99.90;;;;;;8389427;28;20352;-70
2021/12/05 20:56:45;;;;;;;;;;;5.30;99.90;;;;;;8391414;28;22113;-70
2021/12/05 21:00:50;;;;;;;;;;;5.30;99.90;;;;;;8398168;28;19928;-70
2021/12/05 21:04:53;;;;;;;;;;;5.30;99.90;;;;;;8367718;28;19928;-70
2021/12/05 21:08:56;;;;;;;;;;;5.30;99.90;;;;;;8352099;28;20055;-70
2021/12/05 21:12:59;;;;;;;;;;;5.30;99.90;;;;;;8359967;28;19994;-70
2021/12/05 21:17:01;;;;;;;;;;;5.30;99.90;;;;;;8387940;28;20883;-71
2021/12/05 21:21:04;;;;;;;;;;;5.30;99.90;;;;;;8394752;28;19928;-70
2021/12/05 21:25:07;;;;;;;;;;;5.30;99.90;;;;;;8394922;28;19924;-70
2021/12/05 21:29:08;;;;;;;;;;;5.30;99.90;;;;;;8353331;28;19971;-70
2021/12/05 21:33:12;;;;;;;;;;;5.30;99.90;;;;;;8357492;28;19928;-70
2021/12/05 21:37:14;;;;;;;;;;;5.30;99.90;;;;;;8391357;28;19963;-70
2021/12/05 21:41:16;;;;;;;;;;;5.30;99.90;;;;;;8390583;28;19924;-70
2021/12/05 21:45:21;;;;;;;;;;;5.30;99.90;;;;;;8398621;28;21273;-70
2021/12/05 21:49:22;;;;;;;;;;;5.30;99.90;;;;;;8387401;28;19955;-70
2021/12/05 21:53:25;;;;;;;;;;;5.30;99.90;;;;;;8387165;28;20359;-70
2021/12/05 21:57:28;;;;;;;;;;;5.30;99.90;;;;;;8394085;28;19928;-70
2021/12/05 22:01:29;;;;;;;;;;;5.30;99.90;;;;;;8388389;28;19967;-70
2021/12/05 22:05:32;;;;;;;;;;;5.30;99.90;;;;;;8382937;28;20263;-70
2021/12/05 22:09:33;;;;;;;;;;;5.20;99.90;;;;;;8379122;28;19928;-70
2021/12/05 22:13:37;;;;;;;;;;;5.20;99.90;;;;;;8376074;28;19925;-70
2021/12/05 22:17:39;;;;;;;;;;;5.30;99.90;;;;;;8371862;28;19924;-70
2021/12/05 22:21:41;;;;;;;;;;;5.20;99.90;;;;;;8378344;28;20075;-70
2021/12/05 22:25:42;;;;;;;;;;;5.20;99.90;;;;;;8375561;28;19963;-70
2021/12/05 22:29:44;;;;;;;;;;;5.20;99.90;;;;;;8377211;28;20399;-70
2021/12/05 22:33:46;;;;;;;;;;;5.20;99.90;;;;;;8381427;28;20394;-70
2021/12/05 22:37:48;;;;;;;;;;;5.20;99.90;;;;;;8383645;28;19924;-69
2021/12/05 22:41:50;;;;;;;;;;;5.20;99.90;;;;;;8384399;28;19932;-70
2021/12/05 22:45:51;;;;;;;;;;;5.10;99.90;;;;;;8378991;28;19998;-70
2021/12/05 22:49:53;;;;;;;;;;;5.10;99.90;;;;;;8391664;28;20335;-70
2021/12/05 22:53:55;;;;;;;;;;;5.10;99.90;;;;;;8385800;28;19993;-70
2021/12/05 22:57:58;;;;;;;;;;;5.20;99.90;;;;;;8393872;28;19925;-70
2021/12/05 23:02:00;;;;;;;;;;;5.10;99.90;;;;;;8388141;28;19928;-70
2021/12/05 23:06:03;;;;;;;;;;;5.10;99.90;;;;;;8391093;28;19940;-70
2021/12/05 23:10:05;;;;;;;;;;;5.10;99.90;;;;;;8378017;28;19975;-70
2021/12/05 23:14:07;;;;;;;;;;;5.10;99.90;;;;;;8391229;28;19968;-70
2021/12/05 23:18:09;;;;;;;;;;;5.10;99.90;;;;;;8399922;28;19939;-70
2021/12/05 23:22:12;;;;;;;;;;;5.00;99.90;;;;;;8391805;28;19932;-70
2021/12/05 23:26:15;;;;;;;;;;;5.00;99.90;;;;;;8373148;28;20687;-70
2021/12/05 23:30:19;;;;;;;;;;;5.00;99.90;;;;;;8386463;28;20035;-70
2021/12/05 23:34:21;;;;;;;;;;;5.00;99.90;;;;;;8391017;28;20007;-70
2021/12/05 23:38:23;;;;;;;;;;;5.00;99.90;;;;;;8380990;28;20425;-70
2021/12/05 23:42:25;;;;;;;;;;;5.00;99.90;;;;;;8368455;28;19932;-69
2021/12/05 23:46:26;;;;;;;;;;;5.00;99.90;;;;;;8384683;28;19925;-70
2021/12/05 23:50:30;;;;;;;;;;;5.00;99.90;;;;;;8387032;28;19928;-70
2021/12/05 23:54:32;;;;;;;;;;;5.00;99.90;;;;;;8381606;28;19939;-70
2021/12/05 23:58:36;;;;;;;;;;;5.00;99.90;;;;;;8391457;28;19932;-70
